sensor_id;sensor_type;location;lat;lon;timestamp;P1;durP1;ratioP1;P2;durP2;ratioP2
22705;SDS011;11520;51.198;4.468;2023-06-24T00:02:19;8.00;;;3.97;;
22705;SDS011;11520;51.198;4.468;2023-06-24T00:04:51;14.35;;;3.92;;
22705;SDS011;11520;51.198;4.468;2023-06-24T00:07:17;8.60;;;4.07;;
22705;SDS011;11520;51.198;4.468;2023-06-24T00:09:42;5.75;;;4.05;;
22705;SDS011;11520;51.198;4.468;2023-06-24T00:12:08;6.95;;;4.32;;
22705;SDS011;11520;51.198;4.468;2023-06-24T00:14:33;5.95;;;4.20;;
22705;SDS011;11520;51.198;4.468;2023-06-24T00:17:01;6.72;;;4.10;;
22705;SDS011;11520;51.198;4.468;2023-06-24T00:19:27;7.75;;;4.00;;
22705;SDS011;11520;51.198;4.468;2023-06-24T00:21:53;5.65;;;3.50;;
22705;SDS011;11520;51.198;4.468;2023-06-24T00:24:21;7.70;;;4.05;;
22705;SDS011;11520;51.198;4.468;2023-06-24T00:26:53;5.55;;;3.60;;
22705;SDS011;11520;51.198;4.468;2023-06-24T00:29:19;7.72;;;4.03;;
22705;SDS011;11520;51.198;4.468;2023-06-24T00:31:45;7.43;;;4.10;;
22705;SDS011;11520;51.198;4.468;2023-06-24T00:34:11;6.15;;;3.80;;
22705;SDS011;11520;51.198;4.468;2023-06-24T00:36:36;9.38;;;4.47;;
22705;SDS011;11520;51.198;4.468;2023-06-24T00:39:02;9.23;;;4.75;;
22705;SDS011;11520;51.198;4.468;2023-06-24T00:41:29;8.30;;;4.00;;
22705;SDS011;11520;51.198;4.468;2023-06-24T00:43:55;11.80;;;4.13;;
22705;SDS011;11520;51.198;4.468;2023-06-24T00:46:22;6.45;;;4.10;;
22705;SDS011;11520;51.198;4.468;2023-06-24T00:48:50;7.47;;;4.53;;
22705;SDS011;11520;51.198;4.468;2023-06-24T00:51:20;6.72;;;4.60;;
22705;SDS011;11520;51.198;4.468;2023-06-24T00:53:54;9.40;;;5.60;;
22705;SDS011;11520;51.198;4.468;2023-06-24T00:56:30;7.20;;;4.57;;
22705;SDS011;11520;51.198;4.468;2023-06-24T00:58:58;5.60;;;4.25;;
22705;SDS011;11520;51.198;4.468;2023-06-24T01:01:27;8.57;;;5.32;;
22705;SDS011;11520;51.198;4.468;2023-06-24T01:04:00;7.72;;;4.18;;
22705;SDS011;11520;51.198;4.468;2023-06-24T01:06:30;5.88;;;4.55;;
22705;SDS011;11520;51.198;4.468;2023-06-24T01:09:00;7.07;;;4.75;;
22705;SDS011;11520;51.198;4.468;2023-06-24T01:11:27;7.07;;;4.55;;
22705;SDS011;11520;51.198;4.468;2023-06-24T01:13:54;7.63;;;5.03;;
22705;SDS011;11520;51.198;4.468;2023-06-24T01:25:30;9.10;;;5.40;;
22705;SDS011;11520;51.198;4.468;2023-06-24T01:36:40;10.45;;;6.93;;
22705;SDS011;11520;51.198;4.468;2023-06-24T01:39:10;10.75;;;6.95;;
22705;SDS011;11520;51.198;4.468;2023-06-24T01:41:42;10.13;;;7.40;;
22705;SDS011;11520;51.198;4.468;2023-06-24T01:44:13;16.10;;;7.95;;
22705;SDS011;11520;51.198;4.468;2023-06-24T01:46:40;11.48;;;8.35;;
22705;SDS011;11520;51.198;4.468;2023-06-24T01:49:07;13.20;;;7.30;;
22705;SDS011;11520;51.198;4.468;2023-06-24T01:51:37;12.52;;;7.18;;
22705;SDS011;11520;51.198;4.468;2023-06-24T01:54:06;12.25;;;7.28;;
22705;SDS011;11520;51.198;4.468;2023-06-24T01:56:35;10.18;;;6.57;;
22705;SDS011;11520;51.198;4.468;2023-06-24T01:59:03;10.13;;;7.07;;
22705;SDS011;11520;51.198;4.468;2023-06-24T02:01:30;10.73;;;7.75;;
22705;SDS011;11520;51.198;4.468;2023-06-24T02:03:57;11.52;;;7.68;;
22705;SDS011;11520;51.198;4.468;2023-06-24T02:06:26;13.60;;;7.78;;
22705;SDS011;11520;51.198;4.468;2023-06-24T02:08:54;11.63;;;7.20;;
22705;SDS011;11520;51.198;4.468;2023-06-24T02:11:21;10.40;;;7.22;;
22705;SDS011;11520;51.198;4.468;2023-06-24T02:13:49;11.77;;;7.63;;
22705;SDS011;11520;51.198;4.468;2023-06-24T02:16:18;8.05;;;7.18;;
22705;SDS011;11520;51.198;4.468;2023-06-24T02:18:46;13.30;;;8.60;;
22705;SDS011;11520;51.198;4.468;2023-06-24T02:21:13;9.40;;;7.15;;
22705;SDS011;11520;51.198;4.468;2023-06-24T02:23:42;13.88;;;7.57;;
22705;SDS011;11520;51.198;4.468;2023-06-24T02:26:09;13.52;;;8.32;;
22705;SDS011;11520;51.198;4.468;2023-06-24T02:28:36;11.75;;;7.80;;
22705;SDS011;11520;51.198;4.468;2023-06-24T02:31:03;11.48;;;7.22;;
22705;SDS011;11520;51.198;4.468;2023-06-24T02:33:30;12.32;;;7.07;;
22705;SDS011;11520;51.198;4.468;2023-06-24T02:35:56;10.88;;;6.72;;
22705;SDS011;11520;51.198;4.468;2023-06-24T02:38:22;9.73;;;6.78;;
22705;SDS011;11520;51.198;4.468;2023-06-24T02:40:48;10.13;;;6.95;;
22705;SDS011;11520;51.198;4.468;2023-06-24T02:43:16;8.85;;;6.60;;
22705;SDS011;11520;51.198;4.468;2023-06-24T02:45:42;10.98;;;6.70;;
22705;SDS011;11520;51.198;4.468;2023-06-24T02:48:08;11.05;;;7.15;;
22705;SDS011;11520;51.198;4.468;2023-06-24T02:50:36;10.15;;;6.95;;
22705;SDS011;11520;51.198;4.468;2023-06-24T02:53:05;8.88;;;6.55;;
22705;SDS011;11520;51.198;4.468;2023-06-24T02:55:30;10.10;;;6.32;;
22705;SDS011;11520;51.198;4.468;2023-06-24T02:57:58;9.60;;;6.20;;
22705;SDS011;11520;51.198;4.468;2023-06-24T03:00:24;10.80;;;6.72;;
22705;SDS011;11520;51.198;4.468;2023-06-24T03:02:52;8.98;;;6.78;;
22705;SDS011;11520;51.198;4.468;2023-06-24T03:05:18;10.38;;;6.63;;
22705;SDS011;11520;51.198;4.468;2023-06-24T03:07:43;9.50;;;6.28;;
22705;SDS011;11520;51.198;4.468;2023-06-24T03:10:10;9.98;;;6.32;;
22705;SDS011;11520;51.198;4.468;2023-06-24T03:12:36;12.68;;;5.90;;
22705;SDS011;11520;51.198;4.468;2023-06-24T03:15:01;10.00;;;5.40;;
22705;SDS011;11520;51.198;4.468;2023-06-24T03:17:28;9.23;;;6.25;;
22705;SDS011;11520;51.198;4.468;2023-06-24T03:19:55;7.20;;;4.82;;
22705;SDS011;11520;51.198;4.468;2023-06-24T03:22:21;8.48;;;5.35;;
22705;SDS011;11520;51.198;4.468;2023-06-24T03:24:47;8.70;;;5.82;;
22705;SDS011;11520;51.198;4.468;2023-06-24T03:27:14;9.57;;;5.82;;
22705;SDS011;11520;51.198;4.468;2023-06-24T03:29:39;7.47;;;5.45;;
22705;SDS011;11520;51.198;4.468;2023-06-24T03:32:05;6.88;;;4.95;;
22705;SDS011;11520;51.198;4.468;2023-06-24T03:34:31;8.80;;;5.40;;
22705;SDS011;11520;51.198;4.468;2023-06-24T03:36:56;7.68;;;5.22;;
22705;SDS011;11520;51.198;4.468;2023-06-24T03:39:22;9.43;;;5.43;;
22705;SDS011;11520;51.198;4.468;2023-06-24T03:41:48;10.35;;;5.30;;
22705;SDS011;11520;51.198;4.468;2023-06-24T03:44:13;7.57;;;5.18;;
22705;SDS011;11520;51.198;4.468;2023-06-24T03:46:40;7.60;;;4.75;;
22705;SDS011;11520;51.198;4.468;2023-06-24T03:49:05;9.77;;;5.47;;
22705;SDS011;11520;51.198;4.468;2023-06-24T03:51:31;10.30;;;5.63;;
22705;SDS011;11520;51.198;4.468;2023-06-24T03:53:57;8.23;;;5.13;;
22705;SDS011;11520;51.198;4.468;2023-06-24T03:56:22;8.50;;;4.78;;
22705;SDS011;11520;51.198;4.468;2023-06-24T03:58:48;7.82;;;5.50;;
22705;SDS011;11520;51.198;4.468;2023-06-24T04:01:14;9.15;;;5.65;;
22705;SDS011;11520;51.198;4.468;2023-06-24T04:03:39;6.05;;;4.97;;
22705;SDS011;11520;51.198;4.468;2023-06-24T04:06:05;8.88;;;5.43;;
22705;SDS011;11520;51.198;4.468;2023-06-24T04:08:30;7.78;;;5.20;;
22705;SDS011;11520;51.198;4.468;2023-06-24T04:10:56;6.63;;;5.50;;
22705;SDS011;11520;51.198;4.468;2023-06-24T04:13:24;7.20;;;5.18;;
22705;SDS011;11520;51.198;4.468;2023-06-24T04:15:50;8.85;;;5.57;;
22705;SDS011;11520;51.198;4.468;2023-06-24T04:18:16;9.68;;;5.28;;
22705;SDS011;11520;51.198;4.468;2023-06-24T04:20:42;6.00;;;5.00;;
22705;SDS011;11520;51.198;4.468;2023-06-24T04:23:08;8.02;;;4.55;;
22705;SDS011;11520;51.198;4.468;2023-06-24T04:25:35;6.60;;;4.30;;
22705;SDS011;11520;51.198;4.468;2023-06-24T04:28:01;6.43;;;4.10;;
22705;SDS011;11520;51.198;4.468;2023-06-24T04:30:29;5.63;;;4.47;;
22705;SDS011;11520;51.198;4.468;2023-06-24T04:32:55;6.80;;;4.35;;
22705;SDS011;11520;51.198;4.468;2023-06-24T04:35:20;6.80;;;4.45;;
22705;SDS011;11520;51.198;4.468;2023-06-24T04:37:46;5.53;;;3.97;;
22705;SDS011;11520;51.198;4.468;2023-06-24T04:40:14;4.80;;;4.18;;
22705;SDS011;11520;51.198;4.468;2023-06-24T04:42:40;5.47;;;4.18;;
22705;SDS011;11520;51.198;4.468;2023-06-24T04:45:05;6.10;;;4.20;;
22705;SDS011;11520;51.198;4.468;2023-06-24T04:47:31;8.23;;;4.18;;
22705;SDS011;11520;51.198;4.468;2023-06-24T04:49:57;5.85;;;3.50;;
22705;SDS011;11520;51.198;4.468;2023-06-24T04:52:25;6.32;;;3.50;;
22705;SDS011;11520;51.198;4.468;2023-06-24T04:54:51;6.13;;;3.58;;
22705;SDS011;11520;51.198;4.468;2023-06-24T04:57:24;6.25;;;3.45;;
22705;SDS011;11520;51.198;4.468;2023-06-24T04:59:54;5.05;;;3.47;;
22705;SDS011;11520;51.198;4.468;2023-06-24T05:02:20;5.47;;;3.55;;
22705;SDS011;11520;51.198;4.468;2023-06-24T05:04:46;6.65;;;3.78;;
22705;SDS011;11520;51.198;4.468;2023-06-24T05:07:11;5.35;;;3.17;;
22705;SDS011;11520;51.198;4.468;2023-06-24T05:09:37;3.88;;;3.42;;
22705;SDS011;11520;51.198;4.468;2023-06-24T05:12:05;3.78;;;3.10;;
22705;SDS011;11520;51.198;4.468;2023-06-24T05:14:34;6.57;;;3.53;;
22705;SDS011;11520;51.198;4.468;2023-06-24T05:17:00;4.57;;;3.42;;
22705;SDS011;11520;51.198;4.468;2023-06-24T05:19:26;4.55;;;3.63;;
22705;SDS011;11520;51.198;4.468;2023-06-24T05:21:51;3.30;;;2.80;;
22705;SDS011;11520;51.198;4.468;2023-06-24T05:24:17;3.15;;;2.85;;
22705;SDS011;11520;51.198;4.468;2023-06-24T05:26:44;7.38;;;3.60;;
22705;SDS011;11520;51.198;4.468;2023-06-24T05:29:11;3.38;;;2.67;;
22705;SDS011;11520;51.198;4.468;2023-06-24T05:31:37;4.68;;;3.03;;
22705;SDS011;11520;51.198;4.468;2023-06-24T05:34:05;3.10;;;2.80;;
22705;SDS011;11520;51.198;4.468;2023-06-24T05:36:30;4.93;;;3.03;;
22705;SDS011;11520;51.198;4.468;2023-06-24T05:38:56;4.20;;;2.90;;
22705;SDS011;11520;51.198;4.468;2023-06-24T05:41:21;6.20;;;2.45;;
22705;SDS011;11520;51.198;4.468;2023-06-24T05:43:47;4.97;;;3.33;;
22705;SDS011;11520;51.198;4.468;2023-06-24T05:46:12;5.10;;;3.00;;
22705;SDS011;11520;51.198;4.468;2023-06-24T05:48:38;4.63;;;3.15;;
22705;SDS011;11520;51.198;4.468;2023-06-24T05:51:04;7.07;;;3.13;;
22705;SDS011;11520;51.198;4.468;2023-06-24T05:53:29;6.18;;;3.75;;
22705;SDS011;11520;51.198;4.468;2023-06-24T05:55:55;4.32;;;3.15;;
22705;SDS011;11520;51.198;4.468;2023-06-24T05:58:21;5.03;;;3.42;;
22705;SDS011;11520;51.198;4.468;2023-06-24T06:00:46;3.30;;;3.00;;
22705;SDS011;11520;51.198;4.468;2023-06-24T06:03:12;5.45;;;3.55;;
22705;SDS011;11520;51.198;4.468;2023-06-24T06:05:38;5.88;;;3.15;;
22705;SDS011;11520;51.198;4.468;2023-06-24T06:08:06;4.47;;;3.03;;
22705;SDS011;11520;51.198;4.468;2023-06-24T06:10:31;4.10;;;3.17;;
22705;SDS011;11520;51.198;4.468;2023-06-24T06:12:57;5.70;;;3.65;;
22705;SDS011;11520;51.198;4.468;2023-06-24T06:15:22;5.70;;;3.58;;
22705;SDS011;11520;51.198;4.468;2023-06-24T06:17:48;6.20;;;3.17;;
22705;SDS011;11520;51.198;4.468;2023-06-24T06:20:14;6.50;;;3.60;;
22705;SDS011;11520;51.198;4.468;2023-06-24T06:22:39;6.60;;;3.20;;
22705;SDS011;11520;51.198;4.468;2023-06-24T06:25:05;3.80;;;2.80;;
22705;SDS011;11520;51.198;4.468;2023-06-24T06:27:31;4.68;;;3.42;;
22705;SDS011;11520;51.198;4.468;2023-06-24T06:29:57;4.28;;;3.20;;
22705;SDS011;11520;51.198;4.468;2023-06-24T06:32:22;4.18;;;2.80;;
22705;SDS011;11520;51.198;4.468;2023-06-24T06:34:48;7.25;;;3.17;;
22705;SDS011;11520;51.198;4.468;2023-06-24T06:37:15;4.18;;;3.22;;
22705;SDS011;11520;51.198;4.468;2023-06-24T06:39:40;4.18;;;3.65;;
22705;SDS011;11520;51.198;4.468;2023-06-24T06:42:06;4.78;;;3.45;;
22705;SDS011;11520;51.198;4.468;2023-06-24T06:44:31;5.00;;;3.40;;
22705;SDS011;11520;51.198;4.468;2023-06-24T06:46:57;5.28;;;4.07;;
22705;SDS011;11520;51.198;4.468;2023-06-24T06:49:23;8.20;;;3.55;;
22705;SDS011;11520;51.198;4.468;2023-06-24T06:51:48;5.38;;;3.42;;
22705;SDS011;11520;51.198;4.468;2023-06-24T06:54:14;4.78;;;3.45;;
22705;SDS011;11520;51.198;4.468;2023-06-24T06:56:41;5.78;;;3.00;;
22705;SDS011;11520;51.198;4.468;2023-06-24T06:59:07;6.95;;;3.70;;
22705;SDS011;11520;51.198;4.468;2023-06-24T07:01:33;4.85;;;3.40;;
22705;SDS011;11520;51.198;4.468;2023-06-24T07:03:58;6.25;;;3.33;;
22705;SDS011;11520;51.198;4.468;2023-06-24T07:06:24;3.80;;;3.40;;
22705;SDS011;11520;51.198;4.468;2023-06-24T07:08:49;4.25;;;3.35;;
22705;SDS011;11520;51.198;4.468;2023-06-24T07:11:15;4.93;;;3.65;;
22705;SDS011;11520;51.198;4.468;2023-06-24T07:13:41;4.20;;;3.80;;
22705;SDS011;11520;51.198;4.468;2023-06-24T07:16:06;3.40;;;3.10;;
22705;SDS011;11520;51.198;4.468;2023-06-24T07:18:32;5.28;;;2.80;;
22705;SDS011;11520;51.198;4.468;2023-06-24T07:20:59;5.07;;;3.17;;
22705;SDS011;11520;51.198;4.468;2023-06-24T07:23:25;4.90;;;3.35;;
22705;SDS011;11520;51.198;4.468;2023-06-24T07:25:52;4.53;;;3.40;;
22705;SDS011;11520;51.198;4.468;2023-06-24T07:28:19;3.92;;;2.80;;
22705;SDS011;11520;51.198;4.468;2023-06-24T07:30:44;5.43;;;3.88;;
22705;SDS011;11520;51.198;4.468;2023-06-24T07:33:10;5.32;;;3.90;;
22705;SDS011;11520;51.198;4.468;2023-06-24T07:35:35;6.03;;;2.90;;
22705;SDS011;11520;51.198;4.468;2023-06-24T07:38:01;5.38;;;2.85;;
22705;SDS011;11520;51.198;4.468;2023-06-24T07:40:26;4.78;;;3.40;;
22705;SDS011;11520;51.198;4.468;2023-06-24T07:42:53;6.78;;;2.83;;
22705;SDS011;11520;51.198;4.468;2023-06-24T07:45:19;3.30;;;3.00;;
22705;SDS011;11520;51.198;4.468;2023-06-24T07:47:44;4.15;;;3.10;;
22705;SDS011;11520;51.198;4.468;2023-06-24T07:50:10;6.60;;;2.60;;
22705;SDS011;11520;51.198;4.468;2023-06-24T07:52:37;4.57;;;3.15;;
22705;SDS011;11520;51.198;4.468;2023-06-24T07:55:03;4.45;;;2.90;;
22705;SDS011;11520;51.198;4.468;2023-06-24T07:57:29;8.45;;;3.40;;
22705;SDS011;11520;51.198;4.468;2023-06-24T07:59:55;6.15;;;3.20;;
22705;SDS011;11520;51.198;4.468;2023-06-24T08:02:21;4.28;;;3.00;;
22705;SDS011;11520;51.198;4.468;2023-06-24T08:04:46;4.00;;;3.10;;
22705;SDS011;11520;51.198;4.468;2023-06-24T08:07:12;3.85;;;2.80;;
22705;SDS011;11520;51.198;4.468;2023-06-24T08:09:38;3.72;;;2.85;;
22705;SDS011;11520;51.198;4.468;2023-06-24T08:12:04;3.65;;;2.70;;
22705;SDS011;11520;51.198;4.468;2023-06-24T08:14:29;4.35;;;3.10;;
22705;SDS011;11520;51.198;4.468;2023-06-24T08:16:55;6.18;;;2.72;;
22705;SDS011;11520;51.198;4.468;2023-06-24T08:19:21;2.88;;;2.13;;
22705;SDS011;11520;51.198;4.468;2023-06-24T08:21:46;4.45;;;2.33;;
22705;SDS011;11520;51.198;4.468;2023-06-24T08:24:12;3.78;;;2.72;;
22705;SDS011;11520;51.198;4.468;2023-06-24T08:26:37;3.53;;;2.45;;
22705;SDS011;11520;51.198;4.468;2023-06-24T08:29:03;5.95;;;2.83;;
22705;SDS011;11520;51.198;4.468;2023-06-24T08:31:29;5.18;;;2.53;;
22705;SDS011;11520;51.198;4.468;2023-06-24T08:33:54;3.72;;;3.10;;
22705;SDS011;11520;51.198;4.468;2023-06-24T08:36:25;3.45;;;2.90;;
22705;SDS011;11520;51.198;4.468;2023-06-24T08:38:52;4.53;;;3.10;;
22705;SDS011;11520;51.198;4.468;2023-06-24T08:41:18;2.83;;;2.50;;
22705;SDS011;11520;51.198;4.468;2023-06-24T08:43:44;7.20;;;2.42;;
22705;SDS011;11520;51.198;4.468;2023-06-24T08:46:09;3.92;;;2.83;;
22705;SDS011;11520;51.198;4.468;2023-06-24T08:48:37;3.50;;;2.42;;
22705;SDS011;11520;51.198;4.468;2023-06-24T08:51:07;2.83;;;2.60;;
22705;SDS011;11520;51.198;4.468;2023-06-24T08:53:34;3.55;;;2.17;;
22705;SDS011;11520;51.198;4.468;2023-06-24T08:56:04;2.33;;;1.98;;
22705;SDS011;11520;51.198;4.468;2023-06-24T08:58:30;2.03;;;1.80;;
22705;SDS011;11520;51.198;4.468;2023-06-24T09:00:55;3.13;;;1.73;;
22705;SDS011;11520;51.198;4.468;2023-06-24T09:03:22;1.73;;;1.55;;
22705;SDS011;11520;51.198;4.468;2023-06-24T09:05:48;1.70;;;1.60;;
22705;SDS011;11520;51.198;4.468;2023-06-24T09:08:14;2.40;;;1.90;;
22705;SDS011;11520;51.198;4.468;2023-06-24T09:10:41;4.32;;;1.92;;
22705;SDS011;11520;51.198;4.468;2023-06-24T09:13:06;2.95;;;1.90;;
22705;SDS011;11520;51.198;4.468;2023-06-24T09:15:36;2.40;;;2.08;;
22705;SDS011;11520;51.198;4.468;2023-06-24T09:18:03;2.80;;;2.10;;
22705;SDS011;11520;51.198;4.468;2023-06-24T09:20:31;3.45;;;2.10;;
22705;SDS011;11520;51.198;4.468;2023-06-24T09:23:02;3.20;;;1.92;;
22705;SDS011;11520;51.198;4.468;2023-06-24T09:25:30;2.40;;;1.45;;
22705;SDS011;11520;51.198;4.468;2023-06-24T09:27:59;2.92;;;1.38;;
22705;SDS011;11520;51.198;4.468;2023-06-24T09:30:26;2.20;;;1.75;;
22705;SDS011;11520;51.198;4.468;2023-06-24T09:32:52;2.58;;;1.35;;
22705;SDS011;11520;51.198;4.468;2023-06-24T09:35:22;2.78;;;1.52;;
22705;SDS011;11520;51.198;4.468;2023-06-24T09:37:52;4.20;;;1.67;;
22705;SDS011;11520;51.198;4.468;2023-06-24T09:40:20;1.83;;;1.50;;
22705;SDS011;11520;51.198;4.468;2023-06-24T09:42:54;3.50;;;1.80;;
22705;SDS011;11520;51.198;4.468;2023-06-24T09:45:24;3.05;;;1.85;;
22705;SDS011;11520;51.198;4.468;2023-06-24T09:47:54;4.15;;;1.48;;
22705;SDS011;11520;51.198;4.468;2023-06-24T09:50:20;2.97;;;1.60;;
22705;SDS011;11520;51.198;4.468;2023-06-24T09:52:47;2.45;;;1.80;;
22705;SDS011;11520;51.198;4.468;2023-06-24T09:55:15;2.03;;;1.70;;
22705;SDS011;11520;51.198;4.468;2023-06-24T09:57:44;1.90;;;1.65;;
22705;SDS011;11520;51.198;4.468;2023-06-24T10:00:11;2.08;;;1.52;;
22705;SDS011;11520;51.198;4.468;2023-06-24T10:02:40;1.40;;;1.15;;
22705;SDS011;11520;51.198;4.468;2023-06-24T10:05:07;3.22;;;1.33;;
22705;SDS011;11520;51.198;4.468;2023-06-24T10:07:35;4.15;;;1.63;;
22705;SDS011;11520;51.198;4.468;2023-06-24T10:10:03;3.40;;;1.60;;
22705;SDS011;11520;51.198;4.468;2023-06-24T10:12:29;1.88;;;1.30;;
22705;SDS011;11520;51.198;4.468;2023-06-24T10:14:56;1.70;;;1.20;;
22705;SDS011;11520;51.198;4.468;2023-06-24T10:17:23;2.00;;;1.50;;
22705;SDS011;11520;51.198;4.468;2023-06-24T10:19:51;1.98;;;1.52;;
22705;SDS011;11520;51.198;4.468;2023-06-24T10:22:17;2.97;;;1.60;;
22705;SDS011;11520;51.198;4.468;2023-06-24T10:24:51;1.90;;;1.27;;
22705;SDS011;11520;51.198;4.468;2023-06-24T10:27:18;1.30;;;1.20;;
22705;SDS011;11520;51.198;4.468;2023-06-24T10:29:52;2.15;;;1.40;;
22705;SDS011;11520;51.198;4.468;2023-06-24T10:32:21;4.35;;;1.80;;
22705;SDS011;11520;51.198;4.468;2023-06-24T10:34:55;3.00;;;1.33;;
22705;SDS011;11520;51.198;4.468;2023-06-24T10:37:25;1.67;;;1.20;;
22705;SDS011;11520;51.198;4.468;2023-06-24T10:39:58;1.48;;;1.38;;
22705;SDS011;11520;51.198;4.468;2023-06-24T10:47:27;2.03;;;1.42;;
22705;SDS011;11520;51.198;4.468;2023-06-24T10:49:53;2.35;;;1.15;;
22705;SDS011;11520;51.198;4.468;2023-06-24T10:52:19;2.85;;;1.05;;
22705;SDS011;11520;51.198;4.468;2023-06-24T10:54:46;2.08;;;1.50;;
22705;SDS011;11520;51.198;4.468;2023-06-24T10:57:12;1.58;;;1.13;;
22705;SDS011;11520;51.198;4.468;2023-06-24T10:59:41;4.13;;;1.40;;
22705;SDS011;11520;51.198;4.468;2023-06-24T11:02:09;2.05;;;1.10;;
22705;SDS011;11520;51.198;4.468;2023-06-24T11:04:46;1.83;;;1.38;;
22705;SDS011;11520;51.198;4.468;2023-06-24T11:07:12;1.55;;;1.20;;
22705;SDS011;11520;51.198;4.468;2023-06-24T11:09:42;2.20;;;1.70;;
22705;SDS011;11520;51.198;4.468;2023-06-24T11:12:13;1.35;;;1.23;;
22705;SDS011;11520;51.198;4.468;2023-06-24T11:14:41;1.75;;;1.10;;
22705;SDS011;11520;51.198;4.468;2023-06-24T11:17:06;1.50;;;1.40;;
22705;SDS011;11520;51.198;4.468;2023-06-24T11:19:32;2.42;;;1.33;;
22705;SDS011;11520;51.198;4.468;2023-06-24T11:21:58;2.08;;;1.33;;
22705;SDS011;11520;51.198;4.468;2023-06-24T11:24:27;1.88;;;1.40;;
22705;SDS011;11520;51.198;4.468;2023-06-24T11:26:59;2.70;;;1.23;;
22705;SDS011;11520;51.198;4.468;2023-06-24T11:29:29;1.48;;;1.20;;
22705;SDS011;11520;51.198;4.468;2023-06-24T11:31:56;2.63;;;1.48;;
22705;SDS011;11520;51.198;4.468;2023-06-24T11:34:22;1.98;;;1.40;;
22705;SDS011;11520;51.198;4.468;2023-06-24T11:36:48;2.40;;;1.35;;
22705;SDS011;11520;51.198;4.468;2023-06-24T11:39:21;1.88;;;1.50;;
22705;SDS011;11520;51.198;4.468;2023-06-24T11:41:51;1.25;;;1.10;;
22705;SDS011;11520;51.198;4.468;2023-06-24T11:44:20;5.00;;;1.35;;
22705;SDS011;11520;51.198;4.468;2023-06-24T11:46:46;2.15;;;1.50;;
22705;SDS011;11520;51.198;4.468;2023-06-24T11:49:12;1.67;;;1.52;;
22705;SDS011;11520;51.198;4.468;2023-06-24T11:51:49;1.67;;;1.45;;
22705;SDS011;11520;51.198;4.468;2023-06-24T11:54:16;1.60;;;1.35;;
22705;SDS011;11520;51.198;4.468;2023-06-24T11:56:43;3.28;;;1.70;;
22705;SDS011;11520;51.198;4.468;2023-06-24T11:59:19;1.42;;;1.33;;
22705;SDS011;11520;51.198;4.468;2023-06-24T12:02:02;1.77;;;1.33;;
22705;SDS011;11520;51.198;4.468;2023-06-24T12:04:31;1.75;;;1.40;;
22705;SDS011;11520;51.198;4.468;2023-06-24T12:07:03;1.90;;;1.67;;
22705;SDS011;11520;51.198;4.468;2023-06-24T12:09:31;1.92;;;1.67;;
22705;SDS011;11520;51.198;4.468;2023-06-24T12:11:57;3.25;;;1.60;;
22705;SDS011;11520;51.198;4.468;2023-06-24T12:14:22;1.85;;;1.50;;
22705;SDS011;11520;51.198;4.468;2023-06-24T12:16:48;2.22;;;1.63;;
22705;SDS011;11520;51.198;4.468;2023-06-24T12:19:14;1.83;;;1.20;;
22705;SDS011;11520;51.198;4.468;2023-06-24T12:21:39;1.65;;;1.25;;
22705;SDS011;11520;51.198;4.468;2023-06-24T12:24:05;2.50;;;1.60;;
22705;SDS011;11520;51.198;4.468;2023-06-24T12:26:31;2.35;;;1.63;;
22705;SDS011;11520;51.198;4.468;2023-06-24T12:28:57;2.17;;;1.60;;
22705;SDS011;11520;51.198;4.468;2023-06-24T12:31:23;3.17;;;1.52;;
22705;SDS011;11520;51.198;4.468;2023-06-24T12:33:49;1.98;;;1.40;;
22705;SDS011;11520;51.198;4.468;2023-06-24T12:36:16;3.03;;;1.60;;
22705;SDS011;11520;51.198;4.468;2023-06-24T12:38:42;2.65;;;1.70;;
22705;SDS011;11520;51.198;4.468;2023-06-24T12:41:08;2.63;;;1.40;;
22705;SDS011;11520;51.198;4.468;2023-06-24T12:43:33;3.50;;;1.63;;
22705;SDS011;11520;51.198;4.468;2023-06-24T12:45:59;3.08;;;1.60;;
22705;SDS011;11520;51.198;4.468;2023-06-24T12:48:24;2.38;;;1.67;;
22705;SDS011;11520;51.198;4.468;2023-06-24T12:50:51;1.88;;;1.55;;
22705;SDS011;11520;51.198;4.468;2023-06-24T12:53:18;1.88;;;1.45;;
22705;SDS011;11520;51.198;4.468;2023-06-24T12:55:45;2.88;;;1.58;;
22705;SDS011;11520;51.198;4.468;2023-06-24T12:58:12;2.08;;;1.58;;
22705;SDS011;11520;51.198;4.468;2023-06-24T13:00:39;2.28;;;1.50;;
22705;SDS011;11520;51.198;4.468;2023-06-24T13:03:05;1.58;;;1.48;;
22705;SDS011;11520;51.198;4.468;2023-06-24T13:05:30;1.55;;;1.20;;
22705;SDS011;11520;51.198;4.468;2023-06-24T13:07:56;2.22;;;1.80;;
22705;SDS011;11520;51.198;4.468;2023-06-24T13:10:22;1.75;;;1.33;;
22705;SDS011;11520;51.198;4.468;2023-06-24T13:12:48;3.35;;;1.80;;
22705;SDS011;11520;51.198;4.468;2023-06-24T13:15:14;2.53;;;1.60;;
22705;SDS011;11520;51.198;4.468;2023-06-24T13:17:39;3.25;;;1.40;;
22705;SDS011;11520;51.198;4.468;2023-06-24T13:20:05;2.85;;;1.85;;
22705;SDS011;11520;51.198;4.468;2023-06-24T13:22:31;2.20;;;1.58;;
22705;SDS011;11520;51.198;4.468;2023-06-24T13:24:57;1.90;;;1.50;;
22705;SDS011;11520;51.198;4.468;2023-06-24T13:27:22;3.55;;;1.60;;
22705;SDS011;11520;51.198;4.468;2023-06-24T13:29:48;1.58;;;1.25;;
22705;SDS011;11520;51.198;4.468;2023-06-24T13:32:14;3.40;;;1.75;;
22705;SDS011;11520;51.198;4.468;2023-06-24T13:34:39;2.50;;;1.70;;
22705;SDS011;11520;51.198;4.468;2023-06-24T13:37:05;3.90;;;1.70;;
22705;SDS011;11520;51.198;4.468;2023-06-24T13:39:31;2.03;;;1.65;;
22705;SDS011;11520;51.198;4.468;2023-06-24T13:41:57;4.30;;;1.58;;
22705;SDS011;11520;51.198;4.468;2023-06-24T13:44:23;1.60;;;1.50;;
22705;SDS011;11520;51.198;4.468;2023-06-24T13:46:49;3.20;;;1.85;;
22705;SDS011;11520;51.198;4.468;2023-06-24T13:49:15;3.13;;;1.92;;
22705;SDS011;11520;51.198;4.468;2023-06-24T13:51:42;1.98;;;1.35;;
22705;SDS011;11520;51.198;4.468;2023-06-24T13:54:08;2.75;;;1.58;;
22705;SDS011;11520;51.198;4.468;2023-06-24T13:56:33;1.95;;;1.63;;
22705;SDS011;11520;51.198;4.468;2023-06-24T13:58:59;7.20;;;1.80;;
22705;SDS011;11520;51.198;4.468;2023-06-24T14:01:25;2.35;;;1.52;;
22705;SDS011;11520;51.198;4.468;2023-06-24T14:03:53;4.47;;;2.35;;
22705;SDS011;11520;51.198;4.468;2023-06-24T14:06:20;2.08;;;1.88;;
22705;SDS011;11520;51.198;4.468;2023-06-24T14:08:47;2.72;;;1.60;;
22705;SDS011;11520;51.198;4.468;2023-06-24T14:11:14;2.85;;;1.35;;
22705;SDS011;11520;51.198;4.468;2023-06-24T14:13:40;3.90;;;1.50;;
22705;SDS011;11520;51.198;4.468;2023-06-24T14:16:06;1.88;;;1.50;;
22705;SDS011;11520;51.198;4.468;2023-06-24T14:18:32;3.95;;;1.90;;
22705;SDS011;11520;51.198;4.468;2023-06-24T14:20:59;3.00;;;1.90;;
22705;SDS011;11520;51.198;4.468;2023-06-24T14:23:25;2.85;;;1.70;;
22705;SDS011;11520;51.198;4.468;2023-06-24T14:25:52;3.60;;;1.95;;
22705;SDS011;11520;51.198;4.468;2023-06-24T14:28:17;2.35;;;1.77;;
22705;SDS011;11520;51.198;4.468;2023-06-24T14:30:43;3.60;;;1.85;;
22705;SDS011;11520;51.198;4.468;2023-06-24T14:33:10;2.50;;;1.73;;
22705;SDS011;11520;51.198;4.468;2023-06-24T14:35:36;4.03;;;1.95;;
22705;SDS011;11520;51.198;4.468;2023-06-24T14:38:02;2.17;;;1.80;;
22705;SDS011;11520;51.198;4.468;2023-06-24T14:40:27;2.25;;;2.05;;
22705;SDS011;11520;51.198;4.468;2023-06-24T14:42:56;3.15;;;2.17;;
22705;SDS011;11520;51.198;4.468;2023-06-24T14:45:22;2.15;;;1.95;;
22705;SDS011;11520;51.198;4.468;2023-06-24T14:47:47;2.67;;;2.00;;
22705;SDS011;11520;51.198;4.468;2023-06-24T14:50:13;3.15;;;2.30;;
22705;SDS011;11520;51.198;4.468;2023-06-24T14:52:39;2.60;;;1.60;;
22705;SDS011;11520;51.198;4.468;2023-06-24T14:55:05;3.42;;;1.90;;
22705;SDS011;11520;51.198;4.468;2023-06-24T14:57:31;3.15;;;2.65;;
22705;SDS011;11520;51.198;4.468;2023-06-24T14:59:58;3.10;;;2.05;;
22705;SDS011;11520;51.198;4.468;2023-06-24T15:02:23;1.80;;;1.65;;
22705;SDS011;11520;51.198;4.468;2023-06-24T15:04:51;2.50;;;2.05;;
22705;SDS011;11520;51.198;4.468;2023-06-24T15:07:18;2.83;;;2.20;;